sensor_id;sensor_type;location;lat;lon;timestamp;P1;durP1;ratioP1;P2;durP2;ratioP2
61572;SDS011;47465;43.094;12.434;2023-03-01T00:00:50;11.30;;;5.30;;
61572;SDS011;47465;43.094;12.434;2023-03-01T00:03:16;11.93;;;6.13;;
61572;SDS011;47465;43.094;12.434;2023-03-01T00:05:43;11.13;;;5.80;;
61572;SDS011;47465;43.094;12.434;2023-03-01T00:08:09;11.00;;;5.80;;
61572;SDS011;47465;43.094;12.434;2023-03-01T00:10:37;9.80;;;5.70;;
61572;SDS011;47465;43.094;12.434;2023-03-01T00:13:03;9.95;;;5.32;;
61572;SDS011;47465;43.094;12.434;2023-03-01T00:15:30;11.55;;;5.72;;
61572;SDS011;47465;43.094;12.434;2023-03-01T00:17:56;7.90;;;5.10;;
61572;SDS011;47465;43.094;12.434;2023-03-01T00:20:22;10.55;;;5.80;;
61572;SDS011;47465;43.094;12.434;2023-03-01T00:22:48;10.48;;;5.93;;
61572;SDS011;47465;43.094;12.434;2023-03-01T00:25:14;9.48;;;5.85;;
61572;SDS011;47465;43.094;12.434;2023-03-01T00:27:41;8.23;;;4.80;;
61572;SDS011;47465;43.094;12.434;2023-03-01T00:30:08;10.10;;;5.57;;
61572;SDS011;47465;43.094;12.434;2023-03-01T00:32:35;7.25;;;4.50;;
61572;SDS011;47465;43.094;12.434;2023-03-01T00:35:01;9.05;;;5.38;;
61572;SDS011;47465;43.094;12.434;2023-03-01T00:37:27;9.15;;;4.80;;
61572;SDS011;47465;43.094;12.434;2023-03-01T00:39:53;7.85;;;4.50;;
61572;SDS011;47465;43.094;12.434;2023-03-01T00:42:19;9.05;;;4.88;;
61572;SDS011;47465;43.094;12.434;2023-03-01T00:44:46;8.13;;;4.50;;
61572;SDS011;47465;43.094;12.434;2023-03-01T00:47:12;9.80;;;4.63;;
61572;SDS011;47465;43.094;12.434;2023-03-01T00:49:39;8.05;;;4.38;;
61572;SDS011;47465;43.094;12.434;2023-03-01T00:52:04;8.20;;;4.45;;
61572;SDS011;47465;43.094;12.434;2023-03-01T00:54:30;7.60;;;4.00;;
61572;SDS011;47465;43.094;12.434;2023-03-01T00:56:57;7.50;;;4.43;;
61572;SDS011;47465;43.094;12.434;2023-03-01T00:59:22;7.25;;;4.22;;
61572;SDS011;47465;43.094;12.434;2023-03-01T01:01:50;7.40;;;4.05;;
61572;SDS011;47465;43.094;12.434;2023-03-01T01:04:16;6.35;;;4.00;;
61572;SDS011;47465;43.094;12.434;2023-03-01T01:06:42;8.07;;;3.92;;
61572;SDS011;47465;43.094;12.434;2023-03-01T01:09:10;6.40;;;3.63;;
61572;SDS011;47465;43.094;12.434;2023-03-01T01:11:42;7.90;;;3.83;;
61572;SDS011;47465;43.094;12.434;2023-03-01T01:14:08;6.45;;;3.38;;
61572;SDS011;47465;43.094;12.434;2023-03-01T01:16:34;6.88;;;3.78;;
61572;SDS011;47465;43.094;12.434;2023-03-01T01:19:02;4.55;;;2.92;;
61572;SDS011;47465;43.094;12.434;2023-03-01T01:21:28;6.38;;;3.38;;
61572;SDS011;47465;43.094;12.434;2023-03-01T01:23:54;7.45;;;3.67;;
61572;SDS011;47465;43.094;12.434;2023-03-01T01:26:21;5.60;;;3.50;;
61572;SDS011;47465;43.094;12.434;2023-03-01T01:28:48;5.43;;;3.22;;
61572;SDS011;47465;43.094;12.434;2023-03-01T01:31:14;5.10;;;3.30;;
61572;SDS011;47465;43.094;12.434;2023-03-01T01:33:41;5.32;;;3.03;;
61572;SDS011;47465;43.094;12.434;2023-03-01T01:36:09;5.15;;;3.08;;
61572;SDS011;47465;43.094;12.434;2023-03-01T01:38:36;5.18;;;3.35;;
61572;SDS011;47465;43.094;12.434;2023-03-01T01:41:03;5.07;;;3.28;;
61572;SDS011;47465;43.094;12.434;2023-03-01T01:43:32;5.75;;;3.30;;
61572;SDS011;47465;43.094;12.434;2023-03-01T01:46:00;5.75;;;3.08;;
61572;SDS011;47465;43.094;12.434;2023-03-01T01:48:32;5.88;;;3.50;;
61572;SDS011;47465;43.094;12.434;2023-03-01T01:51:05;5.47;;;3.25;;
61572;SDS011;47465;43.094;12.434;2023-03-01T01:53:35;6.43;;;3.40;;
61572;SDS011;47465;43.094;12.434;2023-03-01T01:56:02;6.03;;;3.47;;
61572;SDS011;47465;43.094;12.434;2023-03-01T01:58:32;5.00;;;3.00;;
61572;SDS011;47465;43.094;12.434;2023-03-01T02:00:58;5.80;;;3.28;;
61572;SDS011;47465;43.094;12.434;2023-03-01T02:03:26;6.28;;;3.20;;
61572;SDS011;47465;43.094;12.434;2023-03-01T02:06:00;4.80;;;3.17;;
61572;SDS011;47465;43.094;12.434;2023-03-01T02:08:29;7.00;;;2.75;;
61572;SDS011;47465;43.094;12.434;2023-03-01T02:10:59;6.25;;;3.35;;
61572;SDS011;47465;43.094;12.434;2023-03-01T02:13:26;4.40;;;2.47;;
61572;SDS011;47465;43.094;12.434;2023-03-01T02:15:52;4.95;;;2.60;;
61572;SDS011;47465;43.094;12.434;2023-03-01T02:18:19;4.07;;;2.60;;
61572;SDS011;47465;43.094;12.434;2023-03-01T02:20:51;4.40;;;2.90;;
61572;SDS011;47465;43.094;12.434;2023-03-01T02:23:27;5.35;;;2.80;;
61572;SDS011;47465;43.094;12.434;2023-03-01T02:25:55;5.32;;;2.90;;
61572;SDS011;47465;43.094;12.434;2023-03-01T02:28:30;5.72;;;2.72;;
61572;SDS011;47465;43.094;12.434;2023-03-01T02:30:57;4.68;;;2.75;;
61572;SDS011;47465;43.094;12.434;2023-03-01T02:33:57;5.25;;;2.55;;
61572;SDS011;47465;43.094;12.434;2023-03-01T02:36:25;5.88;;;2.70;;
61572;SDS011;47465;43.094;12.434;2023-03-01T02:38:57;4.15;;;2.60;;
61572;SDS011;47465;43.094;12.434;2023-03-01T02:41:26;3.50;;;2.42;;
61572;SDS011;47465;43.094;12.434;2023-03-01T02:43:56;5.18;;;2.50;;
61572;SDS011;47465;43.094;12.434;2023-03-01T02:46:23;3.78;;;2.58;;
61572;SDS011;47465;43.094;12.434;2023-03-01T02:48:51;4.03;;;2.38;;
61572;SDS011;47465;43.094;12.434;2023-03-01T02:51:24;4.15;;;2.50;;
61572;SDS011;47465;43.094;12.434;2023-03-01T02:54:13;4.30;;;2.45;;
61572;SDS011;47465;43.094;12.434;2023-03-01T02:56:45;4.80;;;2.58;;
61572;SDS011;47465;43.094;12.434;2023-03-01T02:59:14;4.17;;;2.30;;
61572;SDS011;47465;43.094;12.434;2023-03-01T03:01:42;4.00;;;2.50;;
61572;SDS011;47465;43.094;12.434;2023-03-01T03:04:09;4.40;;;2.55;;
61572;SDS011;47465;43.094;12.434;2023-03-01T03:06:38;4.75;;;2.80;;
61572;SDS011;47465;43.094;12.434;2023-03-01T03:09:04;4.28;;;2.58;;
61572;SDS011;47465;43.094;12.434;2023-03-01T03:11:30;5.10;;;2.58;;
61572;SDS011;47465;43.094;12.434;2023-03-01T03:13:57;4.38;;;2.70;;
61572;SDS011;47465;43.094;12.434;2023-03-01T03:16:23;4.00;;;2.80;;
61572;SDS011;47465;43.094;12.434;2023-03-01T03:18:49;5.75;;;2.92;;
61572;SDS011;47465;43.094;12.434;2023-03-01T03:21:16;6.20;;;3.20;;
61572;SDS011;47465;43.094;12.434;2023-03-01T03:23:43;5.63;;;3.13;;
61572;SDS011;47465;43.094;12.434;2023-03-01T03:26:09;6.78;;;3.58;;
61572;SDS011;47465;43.094;12.434;2023-03-01T03:28:38;9.18;;;3.83;;
61572;SDS011;47465;43.094;12.434;2023-03-01T03:31:05;6.28;;;3.72;;
61572;SDS011;47465;43.094;12.434;2023-03-01T03:33:31;5.30;;;2.95;;
61572;SDS011;47465;43.094;12.434;2023-03-01T03:35:58;5.93;;;3.30;;
61572;SDS011;47465;43.094;12.434;2023-03-01T03:38:24;5.35;;;3.38;;
61572;SDS011;47465;43.094;12.434;2023-03-01T03:40:54;7.18;;;3.90;;
61572;SDS011;47465;43.094;12.434;2023-03-01T03:43:27;6.85;;;3.72;;
61572;SDS011;47465;43.094;12.434;2023-03-01T03:45:54;7.82;;;4.32;;
61572;SDS011;47465;43.094;12.434;2023-03-01T03:48:22;12.85;;;6.13;;
61572;SDS011;47465;43.094;12.434;2023-03-01T03:50:49;8.18;;;4.60;;
61572;SDS011;47465;43.094;12.434;2023-03-01T03:53:16;8.75;;;4.70;;
61572;SDS011;47465;43.094;12.434;2023-03-01T03:55:43;5.63;;;3.25;;
61572;SDS011;47465;43.094;12.434;2023-03-01T03:58:11;5.38;;;3.47;;
61572;SDS011;47465;43.094;12.434;2023-03-01T04:00:37;6.43;;;3.08;;
61572;SDS011;47465;43.094;12.434;2023-03-01T04:03:04;6.57;;;3.30;;
61572;SDS011;47465;43.094;12.434;2023-03-01T04:05:31;6.63;;;3.35;;
61572;SDS011;47465;43.094;12.434;2023-03-01T04:07:57;5.60;;;3.20;;
61572;SDS011;47465;43.094;12.434;2023-03-01T04:10:27;6.78;;;3.55;;
61572;SDS011;47465;43.094;12.434;2023-03-01T04:12:53;4.80;;;3.20;;
61572;SDS011;47465;43.094;12.434;2023-03-01T04:15:24;5.25;;;2.90;;
61572;SDS011;47465;43.094;12.434;2023-03-01T04:17:52;8.23;;;3.22;;
61572;SDS011;47465;43.094;12.434;2023-03-01T04:20:20;5.25;;;3.05;;
61572;SDS011;47465;43.094;12.434;2023-03-01T04:22:50;5.53;;;3.38;;
61572;SDS011;47465;43.094;12.434;2023-03-01T04:25:17;5.18;;;3.30;;
61572;SDS011;47465;43.094;12.434;2023-03-01T04:27:43;5.15;;;3.13;;
61572;SDS011;47465;43.094;12.434;2023-03-01T04:30:09;4.80;;;2.58;;
61572;SDS011;47465;43.094;12.434;2023-03-01T04:32:37;5.10;;;3.10;;
61572;SDS011;47465;43.094;12.434;2023-03-01T04:35:03;4.68;;;2.75;;
61572;SDS011;47465;43.094;12.434;2023-03-01T04:37:29;6.03;;;2.97;;
61572;SDS011;47465;43.094;12.434;2023-03-01T04:39:55;6.13;;;3.30;;
61572;SDS011;47465;43.094;12.434;2023-03-01T04:42:21;4.70;;;2.85;;
61572;SDS011;47465;43.094;12.434;2023-03-01T04:44:47;5.57;;;3.40;;
61572;SDS011;47465;43.094;12.434;2023-03-01T04:47:17;6.55;;;2.90;;
61572;SDS011;47465;43.094;12.434;2023-03-01T04:49:44;4.97;;;3.10;;
61572;SDS011;47465;43.094;12.434;2023-03-01T04:52:10;5.13;;;3.17;;
61572;SDS011;47465;43.094;12.434;2023-03-01T04:54:36;5.07;;;3.05;;
61572;SDS011;47465;43.094;12.434;2023-03-01T04:57:02;6.85;;;3.80;;
61572;SDS011;47465;43.094;12.434;2023-03-01T04:59:28;15.13;;;7.18;;
61572;SDS011;47465;43.094;12.434;2023-03-01T05:01:55;8.52;;;5.25;;
61572;SDS011;47465;43.094;12.434;2023-03-01T05:04:22;13.18;;;7.57;;
61572;SDS011;47465;43.094;12.434;2023-03-01T05:06:50;8.95;;;4.70;;
61572;SDS011;47465;43.094;12.434;2023-03-01T05:09:16;7.80;;;4.10;;
61572;SDS011;47465;43.094;12.434;2023-03-01T05:11:42;6.75;;;4.15;;
61572;SDS011;47465;43.094;12.434;2023-03-01T05:14:08;6.57;;;3.22;;
61572;SDS011;47465;43.094;12.434;2023-03-01T05:16:35;4.25;;;2.65;;
61572;SDS011;47465;43.094;12.434;2023-03-01T05:19:02;5.63;;;3.20;;
61572;SDS011;47465;43.094;12.434;2023-03-01T05:21:36;5.60;;;3.20;;
61572;SDS011;47465;43.094;12.434;2023-03-01T05:24:24;6.15;;;3.60;;
61572;SDS011;47465;43.094;12.434;2023-03-01T05:26:50;4.57;;;3.00;;
61572;SDS011;47465;43.094;12.434;2023-03-01T05:29:17;6.00;;;2.70;;
61572;SDS011;47465;43.094;12.434;2023-03-01T05:31:43;5.47;;;2.83;;
61572;SDS011;47465;43.094;12.434;2023-03-01T05:34:09;5.07;;;2.95;;
61572;SDS011;47465;43.094;12.434;2023-03-01T05:36:38;5.20;;;2.50;;
61572;SDS011;47465;43.094;12.434;2023-03-01T05:39:04;4.15;;;2.10;;
61572;SDS011;47465;43.094;12.434;2023-03-01T05:41:32;4.28;;;1.98;;
61572;SDS011;47465;43.094;12.434;2023-03-01T05:43:58;3.42;;;2.38;;
61572;SDS011;47465;43.094;12.434;2023-03-01T05:46:24;3.75;;;2.03;;
61572;SDS011;47465;43.094;12.434;2023-03-01T05:48:50;5.32;;;2.20;;
61572;SDS011;47465;43.094;12.434;2023-03-01T05:51:16;4.22;;;2.30;;
61572;SDS011;47465;43.094;12.434;2023-03-01T05:53:42;2.63;;;1.85;;
61572;SDS011;47465;43.094;12.434;2023-03-01T05:56:08;4.65;;;2.10;;
61572;SDS011;47465;43.094;12.434;2023-03-01T05:58:35;2.47;;;1.67;;
61572;SDS011;47465;43.094;12.434;2023-03-01T06:03:29;2.95;;;1.70;;
61572;SDS011;47465;43.094;12.434;2023-03-01T06:05:55;2.70;;;1.90;;
61572;SDS011;47465;43.094;12.434;2023-03-01T06:08:21;2.72;;;1.88;;
61572;SDS011;47465;43.094;12.434;2023-03-01T06:10:49;2.00;;;1.60;;
61572;SDS011;47465;43.094;12.434;2023-03-01T06:13:15;3.30;;;1.95;;
61572;SDS011;47465;43.094;12.434;2023-03-01T06:15:43;3.78;;;2.00;;
61572;SDS011;47465;43.094;12.434;2023-03-01T06:18:09;2.97;;;1.70;;
61572;SDS011;47465;43.094;12.434;2023-03-01T06:20:35;2.70;;;1.80;;
61572;SDS011;47465;43.094;12.434;2023-03-01T06:23:01;3.83;;;1.70;;
61572;SDS011;47465;43.094;12.434;2023-03-01T06:25:27;2.40;;;1.70;;
61572;SDS011;47465;43.094;12.434;2023-03-01T06:27:53;1.83;;;1.65;;
61572;SDS011;47465;43.094;12.434;2023-03-01T06:30:19;1.73;;;1.60;;
61572;SDS011;47465;43.094;12.434;2023-03-01T06:32:48;2.05;;;1.52;;
61572;SDS011;47465;43.094;12.434;2023-03-01T06:35:14;2.35;;;1.65;;
61572;SDS011;47465;43.094;12.434;2023-03-01T06:37:43;2.75;;;1.75;;
61572;SDS011;47465;43.094;12.434;2023-03-01T06:40:10;2.00;;;1.73;;
61572;SDS011;47465;43.094;12.434;2023-03-01T06:42:37;2.17;;;1.90;;
61572;SDS011;47465;43.094;12.434;2023-03-01T06:45:04;2.20;;;1.73;;
61572;SDS011;47465;43.094;12.434;2023-03-01T06:47:31;2.33;;;1.55;;
61572;SDS011;47465;43.094;12.434;2023-03-01T06:49:59;1.50;;;1.35;;
61572;SDS011;47465;43.094;12.434;2023-03-01T06:52:25;2.08;;;1.40;;
61572;SDS011;47465;43.094;12.434;2023-03-01T06:54:51;1.70;;;1.40;;
61572;SDS011;47465;43.094;12.434;2023-03-01T06:57:17;1.40;;;1.30;;
61572;SDS011;47465;43.094;12.434;2023-03-01T06:59:43;2.55;;;1.50;;
61572;SDS011;47465;43.094;12.434;2023-03-01T07:02:10;2.40;;;1.50;;
61572;SDS011;47465;43.094;12.434;2023-03-01T07:04:37;1.45;;;1.33;;
61572;SDS011;47465;43.094;12.434;2023-03-01T07:07:05;3.15;;;1.50;;
61572;SDS011;47465;43.094;12.434;2023-03-01T07:09:31;2.03;;;1.42;;
61572;SDS011;47465;43.094;12.434;2023-03-01T07:11:57;2.17;;;1.50;;
61572;SDS011;47465;43.094;12.434;2023-03-01T07:14:23;2.83;;;1.95;;
61572;SDS011;47465;43.094;12.434;2023-03-01T07:16:50;2.20;;;1.65;;
61572;SDS011;47465;43.094;12.434;2023-03-01T07:19:17;2.67;;;1.75;;
61572;SDS011;47465;43.094;12.434;2023-03-01T07:21:42;3.20;;;1.80;;
61572;SDS011;47465;43.094;12.434;2023-03-01T07:24:10;1.75;;;1.50;;
61572;SDS011;47465;43.094;12.434;2023-03-01T07:26:36;4.30;;;2.03;;
61572;SDS011;47465;43.094;12.434;2023-03-01T07:29:03;2.58;;;1.60;;
61572;SDS011;47465;43.094;12.434;2023-03-01T07:31:30;2.55;;;1.70;;
61572;SDS011;47465;43.094;12.434;2023-03-01T07:33:56;2.65;;;1.73;;
61572;SDS011;47465;43.094;12.434;2023-03-01T07:36:22;3.60;;;1.83;;
61572;SDS011;47465;43.094;12.434;2023-03-01T07:38:48;1.70;;;1.60;;
61572;SDS011;47465;43.094;12.434;2023-03-01T07:41:16;4.28;;;1.88;;
61572;SDS011;47465;43.094;12.434;2023-03-01T07:43:42;2.22;;;1.70;;
61572;SDS011;47465;43.094;12.434;2023-03-01T07:46:08;3.05;;;1.92;;
61572;SDS011;47465;43.094;12.434;2023-03-01T07:48:34;2.92;;;1.80;;
61572;SDS011;47465;43.094;12.434;2023-03-01T07:50:59;3.40;;;1.88;;
61572;SDS011;47465;43.094;12.434;2023-03-01T07:53:26;2.83;;;2.00;;
61572;SDS011;47465;43.094;12.434;2023-03-01T07:55:59;3.05;;;1.83;;
61572;SDS011;47465;43.094;12.434;2023-03-01T07:58:27;3.42;;;1.80;;
61572;SDS011;47465;43.094;12.434;2023-03-01T08:00:53;2.72;;;1.60;;
61572;SDS011;47465;43.094;12.434;2023-03-01T08:03:19;3.40;;;2.00;;
61572;SDS011;47465;43.094;12.434;2023-03-01T08:05:45;2.60;;;1.70;;
61572;SDS011;47465;43.094;12.434;2023-03-01T08:08:11;3.78;;;2.10;;
61572;SDS011;47465;43.094;12.434;2023-03-01T08:10:37;11.43;;;4.68;;
61572;SDS011;47465;43.094;12.434;2023-03-01T08:13:03;10.30;;;4.55;;
61572;SDS011;47465;43.094;12.434;2023-03-01T08:15:30;8.82;;;4.20;;
61572;SDS011;47465;43.094;12.434;2023-03-01T08:17:56;3.17;;;1.92;;
61572;SDS011;47465;43.094;12.434;2023-03-01T08:20:22;3.05;;;1.80;;
61572;SDS011;47465;43.094;12.434;2023-03-01T08:22:48;3.90;;;1.83;;
61572;SDS011;47465;43.094;12.434;2023-03-01T08:25:14;4.70;;;2.70;;
61572;SDS011;47465;43.094;12.434;2023-03-01T08:27:40;4.47;;;2.90;;
61572;SDS011;47465;43.094;12.434;2023-03-01T08:30:06;3.60;;;2.28;;
61572;SDS011;47465;43.094;12.434;2023-03-01T08:32:37;3.40;;;2.20;;
61572;SDS011;47465;43.094;12.434;2023-03-01T08:35:04;5.25;;;3.28;;
61572;SDS011;47465;43.094;12.434;2023-03-01T08:37:30;4.75;;;2.97;;
61572;SDS011;47465;43.094;12.434;2023-03-01T08:39:58;3.88;;;2.90;;
61572;SDS011;47465;43.094;12.434;2023-03-01T08:42:24;8.13;;;4.15;;
61572;SDS011;47465;43.094;12.434;2023-03-01T08:44:50;6.15;;;4.38;;
61572;SDS011;47465;43.094;12.434;2023-03-01T08:47:16;7.25;;;4.88;;
61572;SDS011;47465;43.094;12.434;2023-03-01T08:49:44;11.20;;;5.03;;
61572;SDS011;47465;43.094;12.434;2023-03-01T08:52:10;8.82;;;5.72;;
61572;SDS011;47465;43.094;12.434;2023-03-01T08:54:36;10.73;;;5.10;;
61572;SDS011;47465;43.094;12.434;2023-03-01T08:57:02;5.25;;;3.53;;
61572;SDS011;47465;43.094;12.434;2023-03-01T08:59:28;3.88;;;2.30;;
61572;SDS011;47465;43.094;12.434;2023-03-01T09:01:55;2.38;;;1.70;;
61572;SDS011;47465;43.094;12.434;2023-03-01T09:04:23;2.22;;;1.63;;
61572;SDS011;47465;43.094;12.434;2023-03-01T09:06:50;3.03;;;2.05;;
61572;SDS011;47465;43.094;12.434;2023-03-01T09:09:16;2.58;;;1.85;;
61572;SDS011;47465;43.094;12.434;2023-03-01T09:11:43;3.65;;;2.10;;
61572;SDS011;47465;43.094;12.434;2023-03-01T09:14:11;2.83;;;1.80;;
61572;SDS011;47465;43.094;12.434;2023-03-01T09:16:37;2.17;;;1.73;;
61572;SDS011;47465;43.094;12.434;2023-03-01T09:19:05;2.25;;;1.70;;
61572;SDS011;47465;43.094;12.434;2023-03-01T09:21:31;1.67;;;1.58;;
61572;SDS011;47465;43.094;12.434;2023-03-01T09:23:58;3.60;;;2.38;;
61572;SDS011;47465;43.094;12.434;2023-03-01T09:26:24;2.90;;;1.80;;
61572;SDS011;47465;43.094;12.434;2023-03-01T09:28:51;2.53;;;1.85;;
61572;SDS011;47465;43.094;12.434;2023-03-01T09:31:18;2.15;;;1.70;;
61572;SDS011;47465;43.094;12.434;2023-03-01T09:33:46;1.83;;;1.48;;
61572;SDS011;47465;43.094;12.434;2023-03-01T09:36:14;1.65;;;1.55;;
61572;SDS011;47465;43.094;12.434;2023-03-01T09:38:42;1.67;;;1.40;;
61572;SDS011;47465;43.094;12.434;2023-03-01T09:41:11;1.50;;;1.38;;
61572;SDS011;47465;43.094;12.434;2023-03-01T09:43:52;2.08;;;1.60;;
61572;SDS011;47465;43.094;12.434;2023-03-01T09:46:23;3.85;;;1.70;;
61572;SDS011;47465;43.094;12.434;2023-03-01T09:48:51;1.92;;;1.50;;
61572;SDS011;47465;43.094;12.434;2023-03-01T09:51:22;1.70;;;1.60;;
61572;SDS011;47465;43.094;12.434;2023-03-01T09:53:52;3.38;;;1.80;;
61572;SDS011;47465;43.094;12.434;2023-03-01T09:56:22;3.65;;;1.98;;
61572;SDS011;47465;43.094;12.434;2023-03-01T09:58:54;3.53;;;1.90;;
61572;SDS011;47465;43.094;12.434;2023-03-01T10:01:31;3.35;;;1.80;;
61572;SDS011;47465;43.094;12.434;2023-03-01T10:04:12;2.72;;;1.75;;
61572;SDS011;47465;43.094;12.434;2023-03-01T10:09:40;4.45;;;2.28;;
61572;SDS011;47465;43.094;12.434;2023-03-01T10:12:11;4.38;;;2.38;;
61572;SDS011;47465;43.094;12.434;2023-03-01T10:14:43;3.20;;;2.10;;
61572;SDS011;47465;43.094;12.434;2023-03-01T10:17:17;3.40;;;2.10;;
61572;SDS011;47465;43.094;12.434;2023-03-01T10:19:50;4.20;;;2.30;;
61572;SDS011;47465;43.094;12.434;2023-03-01T10:22:17;3.22;;;2.00;;
61572;SDS011;47465;43.094;12.434;2023-03-01T10:24:47;3.13;;;2.22;;
61572;SDS011;47465;43.094;12.434;2023-03-01T10:27:16;3.97;;;2.50;;
61572;SDS011;47465;43.094;12.434;2023-03-01T10:29:48;4.90;;;2.80;;
61572;SDS011;47465;43.094;12.434;2023-03-01T10:32:21;4.40;;;2.50;;
61572;SDS011;47465;43.094;12.434;2023-03-01T10:34:47;3.67;;;2.50;;
61572;SDS011;47465;43.094;12.434;2023-03-01T10:37:14;3.97;;;2.63;;
61572;SDS011;47465;43.094;12.434;2023-03-01T10:40:00;4.28;;;2.67;;
61572;SDS011;47465;43.094;12.434;2023-03-01T10:42:35;3.00;;;2.30;;
61572;SDS011;47465;43.094;12.434;2023-03-01T10:45:17;4.10;;;2.55;;
61572;SDS011;47465;43.094;12.434;2023-03-01T10:48:03;5.22;;;2.70;;
61572;SDS011;47465;43.094;12.434;2023-03-01T10:50:31;3.97;;;2.90;;
61572;SDS011;47465;43.094;12.434;2023-03-01T10:52:57;4.57;;;2.63;;
61572;SDS011;47465;43.094;12.434;2023-03-01T10:55:26;5.10;;;2.97;;
61572;SDS011;47465;43.094;12.434;2023-03-01T10:58:07;3.65;;;2.03;;
61572;SDS011;47465;43.094;12.434;2023-03-01T11:00:45;2.42;;;2.05;;
61572;SDS011;47465;43.094;12.434;2023-03-01T11:03:13;10.98;;;5.18;;
61572;SDS011;47465;43.094;12.434;2023-03-01T11:05:55;3.88;;;2.40;;
61572;SDS011;47465;43.094;12.434;2023-03-01T11:08:34;5.63;;;3.20;;
61572;SDS011;47465;43.094;12.434;2023-03-01T11:11:06;5.60;;;3.20;;
61572;SDS011;47465;43.094;12.434;2023-03-01T11:13:50;6.05;;;3.53;;
61572;SDS011;47465;43.094;12.434;2023-03-01T11:16:23;6.43;;;3.30;;
61572;SDS011;47465;43.094;12.434;2023-03-01T11:19:00;5.32;;;3.50;;
61572;SDS011;47465;43.094;12.434;2023-03-01T11:21:47;6.88;;;3.72;;
61572;SDS011;47465;43.094;12.434;2023-03-01T11:24:19;6.85;;;4.10;;
61572;SDS011;47465;43.094;12.434;2023-03-01T11:26:50;6.70;;;4.82;;
61572;SDS011;47465;43.094;12.434;2023-03-01T11:29:25;6.78;;;4.15;;
61572;SDS011;47465;43.094;12.434;2023-03-01T11:31:55;7.13;;;4.70;;
61572;SDS011;47465;43.094;12.434;2023-03-01T11:34:30;6.15;;;4.18;;
61572;SDS011;47465;43.094;12.434;2023-03-01T11:37:05;6.25;;;4.13;;
61572;SDS011;47465;43.094;12.434;2023-03-01T11:39:42;5.55;;;3.45;;
61572;SDS011;47465;43.094;12.434;2023-03-01T11:42:12;6.57;;;4.10;;
61572;SDS011;47465;43.094;12.434;2023-03-01T11:44:45;6.35;;;3.80;;
61572;SDS011;47465;43.094;12.434;2023-03-01T11:47:25;6.40;;;4.03;;
61572;SDS011;47465;43.094;12.434;2023-03-01T11:50:10;6.30;;;4.07;;
61572;SDS011;47465;43.094;12.434;2023-03-01T11:55:46;5.38;;;3.70;;
61572;SDS011;47465;43.094;12.434;2023-03-01T11:58:31;6.70;;;3.88;;
61572;SDS011;47465;43.094;12.434;2023-03-01T12:01:15;4.63;;;3.10;;
61572;SDS011;47465;43.094;12.434;2023-03-01T12:06:32;4.57;;;3.05;;
61572;SDS011;47465;43.094;12.434;2023-03-01T12:12:18;4.35;;;3.10;;
61572;SDS011;47465;43.094;12.434;2023-03-01T12:18:12;3.90;;;2.70;;
61572;SDS011;47465;43.094;12.434;2023-03-01T12:20:58;4.10;;;2.58;;
61572;SDS011;47465;43.094;12.434;2023-03-01T12:23:39;3.63;;;2.50;;
61572;SDS011;47465;43.094;12.434;2023-03-01T12:26:30;3.80;;;2.50;;
61572;SDS011;47465;43.094;12.434;2023-03-01T12:29:10;2.60;;;2.03;;
61572;SDS011;47465;43.094;12.434;2023-03-01T12:31:51;4.38;;;2.42;;
61572;SDS011;47465;43.094;12.434;2023-03-01T12:34:37;4.28;;;2.30;;
61572;SDS011;47465;43.094;12.434;2023-03-01T12:37:25;4.15;;;2.67;;
61572;SDS011;47465;43.094;12.434;2023-03-01T12:42:58;1.85;;;1.60;;
61572;SDS011;47465;43.094;12.434;2023-03-01T12:45:43;2.22;;;1.70;;
61572;SDS011;47465;43.094;12.434;2023-03-01T12:48:23;3.83;;;2.03;;
61572;SDS011;47465;43.094;12.434;2023-03-01T12:50:59;2.67;;;1.98;;
61572;SDS011;47465;43.094;12.434;2023-03-01T12:53:29;2.33;;;1.60;;
61572;SDS011;47465;43.094;12.434;2023-03-01T12:55:58;2.35;;;1.98;;
61572;SDS011;47465;43.094;12.434;2023-03-01T12:58:28;3.10;;;2.00;;
61572;SDS011;47465;43.094;12.434;2023-03-01T13:01:03;4.38;;;2.80;;
61572;SDS011;47465;43.094;12.434;2023-03-01T13:03:44;4.82;;;2.30;;
61572;SDS011;47465;43.094;12.434;2023-03-01T13:06:24;3.33;;;2.10;;
61572;SDS011;47465;43.094;12.434;2023-03-01T13:08:57;2.42;;;2.10;;
61572;SDS011;47465;43.094;12.434;2023-03-01T13:11:30;4.13;;;2.50;;
61572;SDS011;47465;43.094;12.434;2023-03-01T13:16:51;2.40;;;1.95;;
61572;SDS011;47465;43.094;12.434;2023-03-01T13:19:18;1.85;;;1.65;;
61572;SDS011;47465;43.094;12.434;2023-03-01T13:21:48;1.95;;;1.50;;
61572;SDS011;47465;43.094;12.434;2023-03-01T13:24:25;2.17;;;1.50;;
61572;SDS011;47465;43.094;12.434;2023-03-01T13:27:21;1.35;;;1.30;;
61572;SDS011;47465;43.094;12.434;2023-03-01T13:29:54;1.50;;;1.13;;
61572;SDS011;47465;43.094;12.434;2023-03-01T13:32:25;4.00;;;2.88;;
61572;SDS011;47465;43.094;12.434;2023-03-01T13:34:57;3.73;;;1.87;;
61572;SDS011;47465;43.094;12.434;2023-03-01T13:37:29;2.70;;;1.73;;
61572;SDS011;47465;43.094;12.434;2023-03-01T13:40:01;3.40;;;2.00;;
61572;SDS011;47465;43.094;12.434;2023-03-01T13:42:38;1.60;;;1.50;;
61572;SDS011;47465;43.094;12.434;2023-03-01T13:45:16;2.53;;;1.83;;
61572;SDS011;47465;43.094;12.434;2023-03-01T13:47:44;3.13;;;1.95;;
61572;SDS011;47465;43.094;12.434;2023-03-01T13:50:18;1.92;;;1.70;;
61572;SDS011;47465;43.094;12.434;2023-03-01T13:52:48;1.80;;;1.50;;
61572;SDS011;47465;43.094;12.434;2023-03-01T13:55:18;2.80;;;1.85;;
61572;SDS011;47465;43.094;12.434;2023-03-01T13:57:49;2.25;;;1.60;;
61572;SDS011;47465;43.094;12.434;2023-03-01T14:00:29;3.53;;;2.03;;
61572;SDS011;47465;43.094;12.434;2023-03-01T14:03:01;3.53;;;2.22;;
61572;SDS011;47465;43.094;12.434;2023-03-01T14:05:34;2.55;;;1.90;;
61572;SDS011;47465;43.094;12.434;2023-03-01T14:08:02;3.00;;;1.90;;
61572;SDS011;47465;43.094;12.434;2023-03-01T14:10:30;2.00;;;1.70;;
61572;SDS011;47465;43.094;12.434;2023-03-01T14:13:02;2.33;;;1.58;;
61572;SDS011;47465;43.094;12.434;2023-03-01T14:15:43;5.45;;;2.10;;
61572;SDS011;47465;43.094;12.434;2023-03-01T14:18:17;2.65;;;1.80;;
61572;SDS011;47465;43.094;12.434;2023-03-01T14:20:50;2.65;;;1.90;;
61572;SDS011;47465;43.094;12.434;2023-03-01T14:23:19;2.78;;;1.80;;
61572;SDS011;47465;43.094;12.434;2023-03-01T14:25:48;1.70;;;1.55;;
61572;SDS011;47465;43.094;12.434;2023-03-01T14:28:16;2.60;;;2.08;;
61572;SDS011;47465;43.094;12.434;2023-03-01T14:30:44;2.95;;;2.10;;
61572;SDS011;47465;43.094;12.434;2023-03-01T14:33:19;3.30;;;1.98;;
61572;SDS011;47465;43.094;12.434;2023-03-01T14:35:55;3.38;;;2.28;;
61572;SDS011;47465;43.094;12.434;2023-03-01T14:38:29;2.80;;;2.10;;
61572;SDS011;47465;43.094;12.434;2023-03-01T14:40:58;3.22;;;2.20;;
61572;SDS011;47465;43.094;12.434;2023-03-01T14:43:27;3.72;;;2.40;;
61572;SDS011;47465;43.094;12.434;2023-03-01T14:45:56;3.15;;;2.17;;
61572;SDS011;47465;43.094;12.434;2023-03-01T14:48:22;3.63;;;2.30;;
61572;SDS011;47465;43.094;12.434;2023-03-01T14:50:49;3.17;;;2.40;;
61572;SDS011;47465;43.094;12.434;2023-03-01T14:53:16;3.83;;;2.70;;
61572;SDS011;47465;43.094;12.434;2023-03-01T14:55:46;4.70;;;2.38;;
61572;SDS011;47465;43.094;12.434;2023-03-01T14:58:18;4.65;;;2.40;;
61572;SDS011;47465;43.094;12.434;2023-03-01T15:00:46;7.30;;;3.60;;
61572;SDS011;47465;43.094;12.434;2023-03-01T15:03:17;5.00;;;2.80;;
61572;SDS011;47465;43.094;12.434;2023-03-01T15:05:49;6.07;;;3.05;;
61572;SDS011;47465;43.094;12.434;2023-03-01T15:08:18;3.25;;;2.20;;
61572;SDS011;47465;43.094;12.434;2023-03-01T15:10:58;6.57;;;3.45;;